sensor_id;sensor_type;location;lat;lon;timestamp;P1;durP1;ratioP1;P2;durP2;ratioP2
17595;SDS011;8916;47.086;15.920;2024-03-23T00:56:17;9.77;;;5.25;;
17595;SDS011;8916;47.086;15.920;2024-03-23T00:58:44;12.35;;;5.60;;
17595;SDS011;8916;47.086;15.920;2024-03-23T01:01:12;6.75;;;4.55;;
17595;SDS011;8916;47.086;15.920;2024-03-23T01:03:40;10.65;;;4.88;;
17595;SDS011;8916;47.086;15.920;2024-03-23T01:06:08;9.82;;;4.75;;
17595;SDS011;8916;47.086;15.920;2024-03-23T01:08:36;7.75;;;4.25;;
17595;SDS011;8916;47.086;15.920;2024-03-23T01:11:05;10.40;;;5.05;;
17595;SDS011;8916;47.086;15.920;2024-03-23T01:13:32;7.70;;;4.45;;
17595;SDS011;8916;47.086;15.920;2024-03-23T01:16:00;9.15;;;4.68;;
17595;SDS011;8916;47.086;15.920;2024-03-23T01:18:27;12.80;;;5.38;;
17595;SDS011;8916;47.086;15.920;2024-03-23T01:20:56;11.40;;;5.28;;
17595;SDS011;8916;47.086;15.920;2024-03-23T01:23:23;7.45;;;5.07;;
17595;SDS011;8916;47.086;15.920;2024-03-23T01:25:53;9.82;;;5.38;;
17595;SDS011;8916;47.086;15.920;2024-03-23T01:28:20;8.57;;;5.03;;
17595;SDS011;8916;47.086;15.920;2024-03-23T01:30:50;11.35;;;4.63;;
17595;SDS011;8916;47.086;15.920;2024-03-23T01:33:17;10.63;;;5.25;;
17595;SDS011;8916;47.086;15.920;2024-03-23T01:35:45;6.90;;;4.57;;
17595;SDS011;8916;47.086;15.920;2024-03-23T01:38:12;8.13;;;4.45;;
17595;SDS011;8916;47.086;15.920;2024-03-23T01:40:40;13.02;;;4.70;;
17595;SDS011;8916;47.086;15.920;2024-03-23T01:43:09;8.10;;;5.00;;
17595;SDS011;8916;47.086;15.920;2024-03-23T01:45:37;9.98;;;5.03;;
17595;SDS011;8916;47.086;15.920;2024-03-23T01:48:05;10.05;;;4.65;;
17595;SDS011;8916;47.086;15.920;2024-03-23T01:50:35;6.97;;;4.45;;
17595;SDS011;8916;47.086;15.920;2024-03-23T01:53:02;8.23;;;4.40;;
17595;SDS011;8916;47.086;15.920;2024-03-23T01:55:32;9.40;;;4.65;;
17595;SDS011;8916;47.086;15.920;2024-03-23T01:58:00;9.80;;;4.60;;
17595;SDS011;8916;47.086;15.920;2024-03-23T02:00:29;10.23;;;4.82;;
17595;SDS011;8916;47.086;15.920;2024-03-23T02:02:57;8.65;;;4.70;;
17595;SDS011;8916;47.086;15.920;2024-03-23T02:05:25;10.77;;;5.57;;
17595;SDS011;8916;47.086;15.920;2024-03-23T02:07:52;10.25;;;5.35;;
17595;SDS011;8916;47.086;15.920;2024-03-23T02:10:20;8.35;;;4.78;;
17595;SDS011;8916;47.086;15.920;2024-03-23T02:12:48;10.40;;;4.72;;
17595;SDS011;8916;47.086;15.920;2024-03-23T02:15:16;7.57;;;5.00;;
17595;SDS011;8916;47.086;15.920;2024-03-23T02:17:45;14.60;;;5.28;;
17595;SDS011;8916;47.086;15.920;2024-03-23T02:20:13;11.63;;;5.90;;
17595;SDS011;8916;47.086;15.920;2024-03-23T02:22:40;13.85;;;6.60;;
17595;SDS011;8916;47.086;15.920;2024-03-23T02:25:10;13.65;;;5.55;;
17595;SDS011;8916;47.086;15.920;2024-03-23T02:27:37;8.88;;;4.93;;
17595;SDS011;8916;47.086;15.920;2024-03-23T02:30:07;12.10;;;5.93;;
17595;SDS011;8916;47.086;15.920;2024-03-23T02:32:35;10.07;;;4.95;;
17595;SDS011;8916;47.086;15.920;2024-03-23T02:35:03;8.13;;;4.80;;
17595;SDS011;8916;47.086;15.920;2024-03-23T02:37:32;9.80;;;5.47;;
17595;SDS011;8916;47.086;15.920;2024-03-23T02:39:59;10.98;;;5.38;;
17595;SDS011;8916;47.086;15.920;2024-03-23T02:42:29;10.68;;;4.88;;
17595;SDS011;8916;47.086;15.920;2024-03-23T02:44:57;9.43;;;4.95;;
17595;SDS011;8916;47.086;15.920;2024-03-23T02:47:26;6.57;;;4.03;;
17595;SDS011;8916;47.086;15.920;2024-03-23T02:49:53;8.20;;;4.35;;
17595;SDS011;8916;47.086;15.920;2024-03-23T02:52:21;7.63;;;4.18;;
17595;SDS011;8916;47.086;15.920;2024-03-23T02:54:49;6.63;;;4.43;;
17595;SDS011;8916;47.086;15.920;2024-03-23T02:57:17;10.00;;;4.43;;
17595;SDS011;8916;47.086;15.920;2024-03-23T02:59:45;8.15;;;4.88;;
17595;SDS011;8916;47.086;15.920;2024-03-23T03:02:14;12.27;;;5.07;;
17595;SDS011;8916;47.086;15.920;2024-03-23T03:04:42;11.57;;;5.57;;
17595;SDS011;8916;47.086;15.920;2024-03-23T03:07:10;8.90;;;4.97;;
17595;SDS011;8916;47.086;15.920;2024-03-23T03:09:37;8.68;;;5.32;;
17595;SDS011;8916;47.086;15.920;2024-03-23T03:12:05;10.77;;;5.57;;
17595;SDS011;8916;47.086;15.920;2024-03-23T03:14:33;14.80;;;5.47;;
17595;SDS011;8916;47.086;15.920;2024-03-23T03:17:03;8.70;;;5.07;;
17595;SDS011;8916;47.086;15.920;2024-03-23T03:19:30;11.07;;;5.68;;
17595;SDS011;8916;47.086;15.920;2024-03-23T03:21:59;9.10;;;4.28;;
17595;SDS011;8916;47.086;15.920;2024-03-23T03:24:26;10.65;;;5.03;;
17595;SDS011;8916;47.086;15.920;2024-03-23T03:26:55;10.73;;;4.68;;
17595;SDS011;8916;47.086;15.920;2024-03-23T03:29:22;8.55;;;5.05;;
17595;SDS011;8916;47.086;15.920;2024-03-23T03:31:50;12.13;;;5.15;;
17595;SDS011;8916;47.086;15.920;2024-03-23T03:34:19;12.60;;;5.90;;
17595;SDS011;8916;47.086;15.920;2024-03-23T03:36:47;9.57;;;5.40;;
17595;SDS011;8916;47.086;15.920;2024-03-23T03:39:14;9.93;;;5.53;;
17595;SDS011;8916;47.086;15.920;2024-03-23T03:41:42;10.18;;;5.50;;
17595;SDS011;8916;47.086;15.920;2024-03-23T03:44:10;9.93;;;5.15;;
17595;SDS011;8916;47.086;15.920;2024-03-23T03:46:38;9.18;;;4.90;;
17595;SDS011;8916;47.086;15.920;2024-03-23T03:49:05;12.60;;;4.80;;
17595;SDS011;8916;47.086;15.920;2024-03-23T03:51:34;11.25;;;5.20;;
17595;SDS011;8916;47.086;15.920;2024-03-23T03:54:01;11.93;;;5.70;;
17595;SDS011;8916;47.086;15.920;2024-03-23T03:56:30;10.00;;;5.50;;
17595;SDS011;8916;47.086;15.920;2024-03-23T03:58:57;11.05;;;5.53;;
17595;SDS011;8916;47.086;15.920;2024-03-23T04:01:25;10.27;;;5.88;;
17595;SDS011;8916;47.086;15.920;2024-03-23T04:03:52;9.48;;;5.53;;
17595;SDS011;8916;47.086;15.920;2024-03-23T04:06:21;10.07;;;5.00;;
17595;SDS011;8916;47.086;15.920;2024-03-23T04:08:49;9.65;;;5.45;;
17595;SDS011;8916;47.086;15.920;2024-03-23T04:11:18;8.95;;;5.32;;
17595;SDS011;8916;47.086;15.920;2024-03-23T04:13:45;6.43;;;4.47;;
17595;SDS011;8916;47.086;15.920;2024-03-23T04:16:24;10.15;;;4.65;;
17595;SDS011;8916;47.086;15.920;2024-03-23T04:18:53;7.63;;;4.05;;
17595;SDS011;8916;47.086;15.920;2024-03-23T04:21:21;8.00;;;4.80;;
17595;SDS011;8916;47.086;15.920;2024-03-23T04:23:50;10.95;;;4.82;;
17595;SDS011;8916;47.086;15.920;2024-03-23T04:26:19;9.07;;;4.45;;
17595;SDS011;8916;47.086;15.920;2024-03-23T04:28:46;9.20;;;4.95;;
17595;SDS011;8916;47.086;15.920;2024-03-23T04:31:14;9.95;;;5.07;;
17595;SDS011;8916;47.086;15.920;2024-03-23T04:33:42;9.30;;;5.13;;
17595;SDS011;8916;47.086;15.920;2024-03-23T04:36:10;14.88;;;5.53;;
17595;SDS011;8916;47.086;15.920;2024-03-23T04:38:38;9.75;;;5.97;;
17595;SDS011;8916;47.086;15.920;2024-03-23T04:41:09;10.27;;;5.55;;
17595;SDS011;8916;47.086;15.920;2024-03-23T04:43:37;11.35;;;5.63;;
17595;SDS011;8916;47.086;15.920;2024-03-23T04:46:06;12.38;;;5.53;;
17595;SDS011;8916;47.086;15.920;2024-03-23T04:48:34;9.18;;;4.85;;
17595;SDS011;8916;47.086;15.920;2024-03-23T04:51:03;11.77;;;5.47;;
17595;SDS011;8916;47.086;15.920;2024-03-23T04:53:31;8.95;;;5.30;;
17595;SDS011;8916;47.086;15.920;2024-03-23T04:56:00;9.15;;;4.75;;
17595;SDS011;8916;47.086;15.920;2024-03-23T04:58:29;9.52;;;5.05;;
17595;SDS011;8916;47.086;15.920;2024-03-23T05:00:57;8.88;;;4.60;;
17595;SDS011;8916;47.086;15.920;2024-03-23T05:21:33;11.70;;;6.20;;
17595;SDS011;8916;47.086;15.920;2024-03-23T05:24:01;15.02;;;6.68;;
17595;SDS011;8916;47.086;15.920;2024-03-23T05:26:29;15.32;;;6.78;;
17595;SDS011;8916;47.086;15.920;2024-03-23T05:28:57;11.85;;;5.65;;
17595;SDS011;8916;47.086;15.920;2024-03-23T05:31:24;11.15;;;6.38;;
17595;SDS011;8916;47.086;15.920;2024-03-23T05:33:53;9.70;;;5.63;;
17595;SDS011;8916;47.086;15.920;2024-03-23T05:36:20;9.48;;;5.40;;
17595;SDS011;8916;47.086;15.920;2024-03-23T05:38:51;13.00;;;5.63;;
17595;SDS011;8916;47.086;15.920;2024-03-23T05:41:18;11.40;;;5.85;;
17595;SDS011;8916;47.086;15.920;2024-03-23T05:43:46;9.40;;;5.40;;
17595;SDS011;8916;47.086;15.920;2024-03-23T05:46:13;9.73;;;5.18;;
17595;SDS011;8916;47.086;15.920;2024-03-23T05:48:42;12.35;;;5.70;;
17595;SDS011;8916;47.086;15.920;2024-03-23T05:51:09;10.10;;;5.30;;
17595;SDS011;8916;47.086;15.920;2024-03-23T05:53:38;8.85;;;4.82;;
17595;SDS011;8916;47.086;15.920;2024-03-23T05:56:07;7.93;;;4.40;;
17595;SDS011;8916;47.086;15.920;2024-03-23T05:58:35;11.02;;;4.45;;
17595;SDS011;8916;47.086;15.920;2024-03-23T06:01:02;6.68;;;4.50;;
17595;SDS011;8916;47.086;15.920;2024-03-23T06:03:31;9.77;;;4.97;;
17595;SDS011;8916;47.086;15.920;2024-03-23T06:05:58;8.88;;;5.13;;
17595;SDS011;8916;47.086;15.920;2024-03-23T06:08:26;9.43;;;5.35;;
17595;SDS011;8916;47.086;15.920;2024-03-23T06:10:53;14.20;;;5.28;;
17595;SDS011;8916;47.086;15.920;2024-03-23T06:13:22;9.90;;;4.97;;
17595;SDS011;8916;47.086;15.920;2024-03-23T06:15:56;8.82;;;4.65;;
17595;SDS011;8916;47.086;15.920;2024-03-23T06:18:24;8.63;;;4.68;;
17595;SDS011;8916;47.086;15.920;2024-03-23T06:20:52;9.75;;;5.05;;
17595;SDS011;8916;47.086;15.920;2024-03-23T06:23:20;9.85;;;4.75;;
17595;SDS011;8916;47.086;15.920;2024-03-23T06:25:47;11.88;;;5.25;;
17595;SDS011;8916;47.086;15.920;2024-03-23T06:28:16;9.32;;;5.32;;
17595;SDS011;8916;47.086;15.920;2024-03-23T06:30:45;10.27;;;5.25;;
17595;SDS011;8916;47.086;15.920;2024-03-23T06:33:14;9.68;;;5.28;;
17595;SDS011;8916;47.086;15.920;2024-03-23T06:35:41;13.85;;;4.82;;
17595;SDS011;8916;47.086;15.920;2024-03-23T06:38:09;9.52;;;5.30;;
17595;SDS011;8916;47.086;15.920;2024-03-23T06:40:36;14.23;;;5.35;;
17595;SDS011;8916;47.086;15.920;2024-03-23T06:43:05;10.70;;;5.25;;
17595;SDS011;8916;47.086;15.920;2024-03-23T06:45:32;8.30;;;4.82;;
17595;SDS011;8916;47.086;15.920;2024-03-23T06:48:02;10.95;;;5.50;;
17595;SDS011;8916;47.086;15.920;2024-03-23T06:50:30;10.02;;;5.20;;
17595;SDS011;8916;47.086;15.920;2024-03-23T06:52:58;9.02;;;5.25;;
17595;SDS011;8916;47.086;15.920;2024-03-23T06:55:25;9.88;;;5.43;;
17595;SDS011;8916;47.086;15.920;2024-03-23T06:57:54;8.27;;;5.07;;
17595;SDS011;8916;47.086;15.920;2024-03-23T07:00:21;9.98;;;5.70;;
17595;SDS011;8916;47.086;15.920;2024-03-23T07:02:49;11.40;;;4.93;;
17595;SDS011;8916;47.086;15.920;2024-03-23T07:05:18;10.45;;;5.03;;
17595;SDS011;8916;47.086;15.920;2024-03-23T07:07:46;8.70;;;4.47;;
17595;SDS011;8916;47.086;15.920;2024-03-23T07:10:14;9.93;;;4.75;;
17595;SDS011;8916;47.086;15.920;2024-03-23T07:12:42;11.70;;;5.10;;
17595;SDS011;8916;47.086;15.920;2024-03-23T07:15:11;10.65;;;4.40;;
17595;SDS011;8916;47.086;15.920;2024-03-23T07:17:39;8.48;;;4.43;;
17595;SDS011;8916;47.086;15.920;2024-03-23T07:20:06;7.38;;;4.07;;
17595;SDS011;8916;47.086;15.920;2024-03-23T07:22:38;6.47;;;3.83;;
17595;SDS011;8916;47.086;15.920;2024-03-23T07:25:05;5.85;;;3.63;;
17595;SDS011;8916;47.086;15.920;2024-03-23T07:27:34;7.78;;;3.67;;
17595;SDS011;8916;47.086;15.920;2024-03-23T07:30:02;5.53;;;3.33;;
17595;SDS011;8916;47.086;15.920;2024-03-23T07:32:33;6.13;;;4.10;;
17595;SDS011;8916;47.086;15.920;2024-03-23T07:35:00;6.90;;;4.55;;
17595;SDS011;8916;47.086;15.920;2024-03-23T07:37:28;7.45;;;4.43;;
17595;SDS011;8916;47.086;15.920;2024-03-23T07:39:57;9.10;;;4.63;;
17595;SDS011;8916;47.086;15.920;2024-03-23T07:42:26;6.90;;;4.22;;
17595;SDS011;8916;47.086;15.920;2024-03-23T07:44:53;6.95;;;3.95;;
17595;SDS011;8916;47.086;15.920;2024-03-23T07:47:23;7.88;;;4.18;;
17595;SDS011;8916;47.086;15.920;2024-03-23T07:49:50;10.85;;;4.75;;
17595;SDS011;8916;47.086;15.920;2024-03-23T07:52:18;6.07;;;4.10;;
17595;SDS011;8916;47.086;15.920;2024-03-23T07:54:46;6.47;;;4.38;;
17595;SDS011;8916;47.086;15.920;2024-03-23T07:57:15;8.52;;;4.65;;
17595;SDS011;8916;47.086;15.920;2024-03-23T07:59:43;8.20;;;4.57;;
17595;SDS011;8916;47.086;15.920;2024-03-23T08:02:11;6.63;;;4.38;;
17595;SDS011;8916;47.086;15.920;2024-03-23T08:04:38;8.35;;;4.78;;
17595;SDS011;8916;47.086;15.920;2024-03-23T08:07:07;9.00;;;5.13;;
17595;SDS011;8916;47.086;15.920;2024-03-23T08:09:34;10.02;;;5.78;;
17595;SDS011;8916;47.086;15.920;2024-03-23T08:12:02;12.20;;;6.03;;
17595;SDS011;8916;47.086;15.920;2024-03-23T08:14:32;10.68;;;5.82;;
17595;SDS011;8916;47.086;15.920;2024-03-23T08:17:00;11.02;;;6.22;;
17595;SDS011;8916;47.086;15.920;2024-03-23T08:19:27;8.32;;;5.55;;
17595;SDS011;8916;47.086;15.920;2024-03-23T08:21:56;11.07;;;6.10;;
17595;SDS011;8916;47.086;15.920;2024-03-23T08:24:23;13.35;;;6.20;;
17595;SDS011;8916;47.086;15.920;2024-03-23T08:26:51;8.13;;;4.68;;
17595;SDS011;8916;47.086;15.920;2024-03-23T08:29:21;8.88;;;4.70;;
17595;SDS011;8916;47.086;15.920;2024-03-23T08:31:51;8.25;;;5.32;;
17595;SDS011;8916;47.086;15.920;2024-03-23T08:34:18;8.18;;;4.93;;
17595;SDS011;8916;47.086;15.920;2024-03-23T08:36:46;6.97;;;4.53;;
17595;SDS011;8916;47.086;15.920;2024-03-23T08:39:14;8.38;;;5.20;;
17595;SDS011;8916;47.086;15.920;2024-03-23T08:41:42;9.48;;;4.43;;
17595;SDS011;8916;47.086;15.920;2024-03-23T08:44:12;10.73;;;5.28;;
17595;SDS011;8916;47.086;15.920;2024-03-23T08:46:40;9.07;;;4.88;;
17595;SDS011;8916;47.086;15.920;2024-03-23T08:49:09;7.28;;;4.53;;
17595;SDS011;8916;47.086;15.920;2024-03-23T08:51:38;7.60;;;4.60;;
17595;SDS011;8916;47.086;15.920;2024-03-23T08:54:05;9.50;;;5.82;;
17595;SDS011;8916;47.086;15.920;2024-03-23T08:56:34;7.20;;;4.93;;
17595;SDS011;8916;47.086;15.920;2024-03-23T08:59:01;10.35;;;4.75;;
17595;SDS011;8916;47.086;15.920;2024-03-23T09:01:29;10.70;;;5.65;;
17595;SDS011;8916;47.086;15.920;2024-03-23T09:03:56;9.60;;;4.97;;
17595;SDS011;8916;47.086;15.920;2024-03-23T09:06:26;11.52;;;5.30;;
17595;SDS011;8916;47.086;15.920;2024-03-23T09:13:28;11.30;;;5.35;;
17595;SDS011;8916;47.086;15.920;2024-03-23T09:15:56;11.35;;;5.55;;
17595;SDS011;8916;47.086;15.920;2024-03-23T09:18:23;8.55;;;4.80;;
17595;SDS011;8916;47.086;15.920;2024-03-23T09:20:52;7.10;;;4.70;;
17595;SDS011;8916;47.086;15.920;2024-03-23T09:23:21;11.50;;;5.93;;
17595;SDS011;8916;47.086;15.920;2024-03-23T09:25:50;8.98;;;5.10;;
17595;SDS011;8916;47.086;15.920;2024-03-23T09:28:17;9.00;;;5.32;;
17595;SDS011;8916;47.086;15.920;2024-03-23T09:30:45;12.35;;;6.43;;
17595;SDS011;8916;47.086;15.920;2024-03-23T09:33:13;8.52;;;5.03;;
17595;SDS011;8916;47.086;15.920;2024-03-23T09:35:41;10.98;;;5.30;;
17595;SDS011;8916;47.086;15.920;2024-03-23T09:38:10;9.40;;;5.50;;
17595;SDS011;8916;47.086;15.920;2024-03-23T09:40:41;7.68;;;5.15;;
17595;SDS011;8916;47.086;15.920;2024-03-23T09:43:09;9.07;;;5.18;;
17595;SDS011;8916;47.086;15.920;2024-03-23T09:45:38;11.18;;;5.50;;
17595;SDS011;8916;47.086;15.920;2024-03-23T09:48:06;8.93;;;5.90;;
17595;SDS011;8916;47.086;15.920;2024-03-23T09:50:37;11.13;;;6.05;;
17595;SDS011;8916;47.086;15.920;2024-03-23T09:53:05;8.18;;;5.38;;
17595;SDS011;8916;47.086;15.920;2024-03-23T09:55:35;10.60;;;6.20;;
17595;SDS011;8916;47.086;15.920;2024-03-23T09:58:04;9.60;;;5.30;;
17595;SDS011;8916;47.086;15.920;2024-03-23T10:00:32;6.88;;;4.75;;
17595;SDS011;8916;47.086;15.920;2024-03-23T10:03:01;8.88;;;4.95;;
17595;SDS011;8916;47.086;15.920;2024-03-23T10:05:29;9.80;;;4.70;;
17595;SDS011;8916;47.086;15.920;2024-03-23T10:07:58;7.55;;;4.78;;
17595;SDS011;8916;47.086;15.920;2024-03-23T10:10:26;8.18;;;4.80;;
17595;SDS011;8916;47.086;15.920;2024-03-23T10:12:54;7.32;;;4.57;;
17595;SDS011;8916;47.086;15.920;2024-03-23T10:15:24;9.50;;;4.97;;
17595;SDS011;8916;47.086;15.920;2024-03-23T10:17:52;11.13;;;5.05;;
17595;SDS011;8916;47.086;15.920;2024-03-23T10:20:21;7.70;;;4.70;;
17595;SDS011;8916;47.086;15.920;2024-03-23T10:22:49;8.23;;;4.60;;
17595;SDS011;8916;47.086;15.920;2024-03-23T10:25:23;10.90;;;4.78;;
17595;SDS011;8916;47.086;15.920;2024-03-23T10:27:58;8.10;;;4.85;;
17595;SDS011;8916;47.086;15.920;2024-03-23T10:33:06;6.78;;;3.80;;
17595;SDS011;8916;47.086;15.920;2024-03-23T10:35:36;5.78;;;3.95;;
17595;SDS011;8916;47.086;15.920;2024-03-23T10:38:04;5.38;;;3.78;;
17595;SDS011;8916;47.086;15.920;2024-03-23T10:40:33;9.25;;;3.90;;
17595;SDS011;8916;47.086;15.920;2024-03-23T10:43:02;8.80;;;4.18;;
17595;SDS011;8916;47.086;15.920;2024-03-23T10:45:33;4.50;;;3.70;;
17595;SDS011;8916;47.086;15.920;2024-03-23T10:48:00;7.72;;;4.28;;
17595;SDS011;8916;47.086;15.920;2024-03-23T10:50:29;6.47;;;3.50;;
17595;SDS011;8916;47.086;15.920;2024-03-23T10:52:56;5.68;;;3.45;;
17595;SDS011;8916;47.086;15.920;2024-03-23T10:55:26;5.55;;;3.90;;
17595;SDS011;8916;47.086;15.920;2024-03-23T10:57:55;7.97;;;4.30;;
17595;SDS011;8916;47.086;15.920;2024-03-23T11:00:26;7.07;;;4.38;;
17595;SDS011;8916;47.086;15.920;2024-03-23T11:02:55;7.07;;;4.05;;
17595;SDS011;8916;47.086;15.920;2024-03-23T11:05:29;10.75;;;4.68;;
17595;SDS011;8916;47.086;15.920;2024-03-23T11:07:56;7.00;;;4.20;;
17595;SDS011;8916;47.086;15.920;2024-03-23T11:10:25;6.03;;;4.15;;
17595;SDS011;8916;47.086;15.920;2024-03-23T11:12:55;6.65;;;4.57;;
17595;SDS011;8916;47.086;15.920;2024-03-23T11:15:23;7.45;;;4.93;;
17595;SDS011;8916;47.086;15.920;2024-03-23T11:18:05;8.50;;;4.72;;
17595;SDS011;8916;47.086;15.920;2024-03-23T11:20:35;9.43;;;4.97;;
17595;SDS011;8916;47.086;15.920;2024-03-23T11:23:02;8.02;;;5.07;;
17595;SDS011;8916;47.086;15.920;2024-03-23T11:25:31;8.10;;;4.82;;
17595;SDS011;8916;47.086;15.920;2024-03-23T11:28:09;11.73;;;5.30;;
17595;SDS011;8916;47.086;15.920;2024-03-23T11:30:39;7.47;;;4.43;;
17595;SDS011;8916;47.086;15.920;2024-03-23T11:33:07;9.00;;;4.30;;
17595;SDS011;8916;47.086;15.920;2024-03-23T11:35:37;6.90;;;4.43;;
17595;SDS011;8916;47.086;15.920;2024-03-23T11:38:06;11.50;;;4.20;;
17595;SDS011;8916;47.086;15.920;2024-03-23T11:40:38;5.28;;;3.65;;
17595;SDS011;8916;47.086;15.920;2024-03-23T11:43:07;6.35;;;4.03;;
17595;SDS011;8916;47.086;15.920;2024-03-23T11:45:38;4.93;;;4.10;;
17595;SDS011;8916;47.086;15.920;2024-03-23T11:48:10;6.63;;;4.30;;
17595;SDS011;8916;47.086;15.920;2024-03-23T11:50:39;8.05;;;3.60;;
17595;SDS011;8916;47.086;15.920;2024-03-23T11:53:08;7.22;;;4.28;;
17595;SDS011;8916;47.086;15.920;2024-03-23T11:55:45;6.80;;;4.20;;
17595;SDS011;8916;47.086;15.920;2024-03-23T11:58:14;5.20;;;3.88;;
17595;SDS011;8916;47.086;15.920;2024-03-23T12:00:49;6.47;;;4.30;;
17595;SDS011;8916;47.086;15.920;2024-03-23T12:03:19;7.32;;;4.25;;
17595;SDS011;8916;47.086;15.920;2024-03-23T12:05:48;7.03;;;4.10;;
17595;SDS011;8916;47.086;15.920;2024-03-23T12:08:17;7.28;;;4.72;;
17595;SDS011;8916;47.086;15.920;2024-03-23T12:10:51;6.10;;;4.15;;
17595;SDS011;8916;47.086;15.920;2024-03-23T12:13:19;7.47;;;4.88;;
17595;SDS011;8916;47.086;15.920;2024-03-23T12:15:49;9.93;;;4.68;;
17595;SDS011;8916;47.086;15.920;2024-03-23T12:18:18;7.10;;;4.63;;
17595;SDS011;8916;47.086;15.920;2024-03-23T12:20:51;5.90;;;3.85;;
17595;SDS011;8916;47.086;15.920;2024-03-23T12:23:18;7.68;;;4.68;;
17595;SDS011;8916;47.086;15.920;2024-03-23T12:25:48;6.90;;;4.53;;
17595;SDS011;8916;47.086;15.920;2024-03-23T12:28:15;7.43;;;4.50;;
17595;SDS011;8916;47.086;15.920;2024-03-23T12:30:43;10.00;;;4.68;;
17595;SDS011;8916;47.086;15.920;2024-03-23T12:33:11;9.93;;;4.32;;
17595;SDS011;8916;47.086;15.920;2024-03-23T12:35:41;8.40;;;4.50;;
17595;SDS011;8916;47.086;15.920;2024-03-23T12:38:08;6.90;;;4.72;;
17595;SDS011;8916;47.086;15.920;2024-03-23T12:40:36;7.30;;;4.47;;
17595;SDS011;8916;47.086;15.920;2024-03-23T12:43:03;7.07;;;4.13;;
17595;SDS011;8916;47.086;15.920;2024-03-23T12:45:31;7.55;;;4.07;;
17595;SDS011;8916;47.086;15.920;2024-03-23T12:47:59;6.22;;;4.32;;
17595;SDS011;8916;47.086;15.920;2024-03-23T12:50:27;7.30;;;4.70;;
17595;SDS011;8916;47.086;15.920;2024-03-23T12:52:55;6.88;;;4.63;;
17595;SDS011;8916;47.086;15.920;2024-03-23T12:55:24;6.18;;;4.18;;
17595;SDS011;8916;47.086;15.920;2024-03-23T12:57:51;7.47;;;4.95;;
17595;SDS011;8916;47.086;15.920;2024-03-23T13:00:19;7.05;;;4.88;;
17595;SDS011;8916;47.086;15.920;2024-03-23T13:02:46;7.30;;;4.95;;
17595;SDS011;8916;47.086;15.920;2024-03-23T13:05:15;5.88;;;4.47;;
17595;SDS011;8916;47.086;15.920;2024-03-23T13:07:42;6.05;;;4.28;;
17595;SDS011;8916;47.086;15.920;2024-03-23T13:10:12;6.00;;;4.18;;
17595;SDS011;8916;47.086;15.920;2024-03-23T13:12:40;6.65;;;4.32;;
17595;SDS011;8916;47.086;15.920;2024-03-23T13:15:09;7.10;;;4.53;;
17595;SDS011;8916;47.086;15.920;2024-03-23T13:17:36;6.82;;;4.25;;
17595;SDS011;8916;47.086;15.920;2024-03-23T13:20:05;6.90;;;4.07;;
17595;SDS011;8916;47.086;15.920;2024-03-23T13:22:39;8.18;;;4.10;;
17595;SDS011;8916;47.086;15.920;2024-03-23T13:25:08;6.05;;;4.00;;
17595;SDS011;8916;47.086;15.920;2024-03-23T13:27:36;5.07;;;2.92;;
17595;SDS011;8916;47.086;15.920;2024-03-23T13:30:05;5.38;;;3.10;;
17595;SDS011;8916;47.086;15.920;2024-03-23T13:32:34;4.40;;;3.45;;
17595;SDS011;8916;47.086;15.920;2024-03-23T13:35:02;5.05;;;3.08;;
17595;SDS011;8916;47.086;15.920;2024-03-23T13:37:30;4.13;;;3.08;;
17595;SDS011;8916;47.086;15.920;2024-03-23T13:39:58;4.10;;;2.83;;
17595;SDS011;8916;47.086;15.920;2024-03-23T13:42:25;5.35;;;3.40;;
17595;SDS011;8916;47.086;15.920;2024-03-23T13:44:55;4.70;;;3.50;;
17595;SDS011;8916;47.086;15.920;2024-03-23T13:47:22;3.55;;;2.88;;
17595;SDS011;8916;47.086;15.920;2024-03-23T13:49:50;5.28;;;3.25;;
17595;SDS011;8916;47.086;15.920;2024-03-23T13:52:17;4.63;;;2.72;;
17595;SDS011;8916;47.086;15.920;2024-03-23T13:54:49;3.45;;;2.50;;
17595;SDS011;8916;47.086;15.920;2024-03-23T13:57:19;4.07;;;2.78;;
17595;SDS011;8916;47.086;15.920;2024-03-23T13:59:49;4.70;;;2.85;;
17595;SDS011;8916;47.086;15.920;2024-03-23T14:02:18;3.78;;;2.67;;
17595;SDS011;8916;47.086;15.920;2024-03-23T14:04:46;6.38;;;3.00;;
17595;SDS011;8916;47.086;15.920;2024-03-23T14:07:13;4.45;;;3.00;;
17595;SDS011;8916;47.086;15.920;2024-03-23T14:09:43;3.78;;;2.63;;
17595;SDS011;8916;47.086;15.920;2024-03-23T14:12:10;3.47;;;3.00;;
17595;SDS011;8916;47.086;15.920;2024-03-23T14:14:38;5.70;;;2.42;;
17595;SDS011;8916;47.086;15.920;2024-03-23T14:17:06;4.35;;;2.78;;
17595;SDS011;8916;47.086;15.920;2024-03-23T14:19:35;5.20;;;2.75;;
17595;SDS011;8916;47.086;15.920;2024-03-23T14:22:02;3.70;;;2.90;;
17595;SDS011;8916;47.086;15.920;2024-03-23T14:24:32;4.53;;;3.15;;
17595;SDS011;8916;47.086;15.920;2024-03-23T14:26:59;5.05;;;3.38;;
17595;SDS011;8916;47.086;15.920;2024-03-23T14:29:31;5.68;;;3.45;;
17595;SDS011;8916;47.086;15.920;2024-03-23T14:31:59;5.30;;;3.17;;
17595;SDS011;8916;47.086;15.920;2024-03-23T14:34:27;4.85;;;3.38;;
17595;SDS011;8916;47.086;15.920;2024-03-23T14:36:56;3.92;;;2.97;;
17595;SDS011;8916;47.086;15.920;2024-03-23T14:39:25;5.45;;;3.08;;
17595;SDS011;8916;47.086;15.920;2024-03-23T14:41:52;5.20;;;3.55;;
17595;SDS011;8916;47.086;15.920;2024-03-23T14:44:22;6.40;;;3.60;;
17595;SDS011;8916;47.086;15.920;2024-03-23T14:46:53;5.30;;;3.47;;
17595;SDS011;8916;47.086;15.920;2024-03-23T14:49:22;6.75;;;3.15;;
17595;SDS011;8916;47.086;15.920;2024-03-23T14:51:49;5.90;;;3.50;;
17595;SDS011;8916;47.086;15.920;2024-03-23T14:54:19;4.93;;;3.33;;
17595;SDS011;8916;47.086;15.920;2024-03-23T14:56:46;6.20;;;3.38;;
17595;SDS011;8916;47.086;15.920;2024-03-23T14:59:14;5.43;;;3.33;;
17595;SDS011;8916;47.086;15.920;2024-03-23T15:01:42;4.63;;;3.22;;
17595;SDS011;8916;47.086;15.920;2024-03-23T15:04:10;3.95;;;2.60;;
17595;SDS011;8916;47.086;15.920;2024-03-23T15:06:37;4.97;;;3.47;;
17595;SDS011;8916;47.086;15.920;2024-03-23T15:09:05;5.93;;;3.58;;
17595;SDS011;8916;47.086;15.920;2024-03-23T15:11:36;5.45;;;3.38;;
17595;SDS011;8916;47.086;15.920;2024-03-23T15:14:04;5.20;;;3.70;;
17595;SDS011;8916;47.086;15.920;2024-03-23T15:16:33;4.07;;;3.03;;
17595;SDS011;8916;47.086;15.920;2024-03-23T15:19:02;4.53;;;3.33;;
17595;SDS011;8916;47.086;15.920;2024-03-23T15:21:32;6.28;;;3.10;;
17595;SDS011;8916;47.086;15.920;2024-03-23T15:24:00;4.07;;;3.08;;
17595;SDS011;8916;47.086;15.920;2024-03-23T15:26:27;4.13;;;3.00;;
17595;SDS011;8916;47.086;15.920;2024-03-23T15:28:57;4.55;;;3.10;;
17595;SDS011;8916;47.086;15.920;2024-03-23T15:31:36;5.50;;;3.10;;
17595;SDS011;8916;47.086;15.920;2024-03-23T15:34:04;4.85;;;3.63;;
17595;SDS011;8916;47.086;15.920;2024-03-23T15:36:36;5.25;;;3.72;;
17595;SDS011;8916;47.086;15.920;2024-03-23T15:39:05;7.00;;;3.60;;
17595;SDS011;8916;47.086;15.920;2024-03-23T15:41:32;6.20;;;3.75;;
17595;SDS011;8916;47.086;15.920;2024-03-23T15:44:03;4.72;;;3.22;;
17595;SDS011;8916;47.086;15.920;2024-03-23T15:46:31;6.07;;;3.25;;
17595;SDS011;8916;47.086;15.920;2024-03-23T15:49:00;5.93;;;4.00;;
17595;SDS011;8916;47.086;15.920;2024-03-23T15:51:27;3.00;;;1.77;;
17595;SDS011;8916;47.086;15.920;2024-03-23T15:53:59;3.13;;;1.35;;
17595;SDS011;8916;47.086;15.920;2024-03-23T15:56:26;1.52;;;0.98;;
17595;SDS011;8916;47.086;15.920;2024-03-23T15:58:56;3.75;;;0.85;;
17595;SDS011;8916;47.086;15.920;2024-03-23T16:01:33;1.00;;;0.55;;
17595;SDS011;8916;47.086;15.920;2024-03-23T16:04:01;0.93;;;0.60;;
17595;SDS011;8916;47.086;15.920;2024-03-23T16:06:29;3.15;;;0.52;;
17595;SDS011;8916;47.086;15.920;2024-03-23T16:08:56;1.02;;;0.55;;
17595;SDS011;8916;47.086;15.920;2024-03-23T16:11:24;0.28;;;0.28;;